• Join FlightAware (Why Join?)
  • Login
  • US Flag 
Rudolph Flight #1: Arrived! 
02:49AM EST


 

Airport Tracker/Info


-or-


 

Live Flight TrackerFlight Track Log ✈ RPA3436 ✈ 08-Aug-2014 ✈ KDCA - KALB

Flight Track Log - Related Links

Times and Time Zones

All times are in EDT time to prevent confusion due to time zone crossing. See the RPA3436 flight status page for this flight to view local times or setup timezone preferences in your user account.

Time Position Orientation Groundspeed Altitude Reporting Facility
EDT Latitude Longitude Course Direction KTS MPH feet Rate Location/Type
10:09AM 38.9144 -77.1017 319° Northwest 173 199 3,300  Level Washington Center
10:11AM 38.9658 -77.1586 319° Northwest 207 238 6,200 3,120 Climbing Washington Center
10:12AM 39.0264 -77.1361 16° North 209 241 9,700 2,640 Climbing Washington Center
10:12AM 39.0467 -77.0189 77° East 208 239 11,400 2,040 Climbing Washington Center
10:13AM 39.0628 -76.8908 81° East 292 336 13,800 2,520 Climbing Washington Center
10:14AM 39.0850 -76.7414 79° East 368 423 16,500 2,820 Climbing Washington Center
10:15AM 39.0986 -76.6319 81° East 372 428 19,500 2,520 Climbing Washington Center
10:17AM 39.1164 -76.5011 80° East 372 428 21,600 1,440 Climbing Washington Center
10:17AM 39.1339 -76.3594 81° East 377 434 22,400 660 Climbing Washington Center
10:18AM 39.1514 -76.2044 82° East 408 470 23,000 240 Climbing Washington Center
10:19AM 39.1731 -76.0494 80° East 433 498 23,000  Level Washington Center
10:21AM 39.1964 -75.8969 79° East 433 498 23,100 720 Climbing Washington Center
10:21AM 39.2717 -75.7819 50° Northeast 421 484 24,500 1,380 Climbing Washington Center
10:22AM 39.3572 -75.6722 45° Northeast 409 471 25,900 1,320 Climbing Washington Center
10:23AM 39.4428 -75.5594 45° Northeast 421 484 27,200 1,260 Climbing Washington Center
10:24AM 39.5322 -75.4436 45° Northeast 432 497 28,500 900 Climbing Washington Center
10:25AM 39.6217 -75.3247 46° Northeast 437 503 29,000 120 Climbing Washington Center
10:27AM 39.7864 -75.0933 47° Northeast 447 514 29,000  Level New York Center
10:28AM 39.8722 -74.9686 48° Northeast 452 520 29,000  Level New York Center
10:29AM 39.9678 -74.8525 43° Northeast 452 520 29,000  Level New York Center
10:30AM 40.0572 -74.7411 44° Northeast 452 520 29,000  Level New York Center
10:31AM 40.1525 -74.6325 41° Northeast 452 520 29,000  Level New York Center
10:32AM 40.2456 -74.5236 42° Northeast 446 513 29,000  Level New York Center
10:33AM 40.3347 -74.4114 44° Northeast 440 506 29,000  Level New York Center
10:34AM 40.4297 -74.2992 42° Northeast 440 506 29,000  Level New York Center
10:36AM 40.5747 -74.1231 43° Northeast 448 516 29,000 -600 Level Boston Center
10:37AM 40.6633 -74.0167 42° Northeast 447 514 27,500 -2,280 Descending Boston Center
10:38AM 40.7539 -73.9053 43° Northeast 446 513 24,400 -1,740 Descending Boston Center
10:39AM 40.8550 -73.7842 42° Northeast 414 476 24,000 -360 Descending Boston Center
10:40AM 40.9411 -73.6878 40° Northeast 409 471 23,700 -540 Descending Boston Center
10:41AM 41.0414 -73.6331 22° Northeast 391 450 23,000 -360 Descending Boston Center
10:42AM 41.1414 -73.5806 22° Northeast 388 447 23,000 -240 Level Boston Center
10:43AM 41.2406 -73.5278 22° Northeast 387 445 22,600 -1,020 Descending Boston Center
10:44AM 41.2983 -73.4969 22° Northeast 381 438 21,400 -1,980 Descending Boston Center
10:45AM 41.3944 -73.4478 21° North 374 430 19,400 -1,680 Descending Boston Center
10:46AM 41.5042 -73.3894 22° Northeast 364 419 18,000 -720 Descending Boston Center
10:47AM 41.6036 -73.3372 21° North 360 414 18,000  Level Boston Center
10:48AM 41.7000 -73.3517 354° North 354 407 18,000  Level Boston Center
10:49AM 41.7919 -73.3903 343° North 351 404 18,000 -480 Level Boston Center
10:50AM 41.8894 -73.4317 342° North 345 397 17,100 -1,260 Descending Boston Center
10:51AM 41.9786 -73.4708 342° North 342 394 15,500 -2,220 Descending Boston Center
10:52AM 42.0708 -73.5089 343° North 334 384 12,600 -2,820 Descending Boston Center
10:52AM 42.0967 -73.5208 341° North 328 377 11,800 -2,580 Descending Boston Center
10:53AM 42.1244 -73.5214 359° North 327 376 11,100 -1,080 Descending Boston Center
10:53AM 42.1606 -73.5150 North 328 377 11,000 -120 Descending Boston Center
10:54AM 42.2128 -73.5072 North 325 374 11,000 -300 Level Boston Center
10:54AM 42.2503 -73.5142 352° North 323 372 10,700 -900 Descending Boston Center
10:55AM 42.2897 -73.5442 331° Northwest 284 327 10,100 -1,500 Descending Boston Center
10:56AM 42.3567 -73.5894 333° Northwest 260 299 8,400 -1,920 Descending Boston Center
10:57AM 42.4194 -73.6336 333° Northwest 257 296 6,300 -2,040 Descending Boston Center
10:58AM 42.4803 -73.6772 332° Northwest 245 282 4,400 -1,440 Descending Boston Center
10:59AM 42.5431 -73.7214 333° Northwest 236 272 3,400 -840 Descending Boston Center
11:00AM 42.5906 -73.7547 333° Northwest 188 216 2,700 -780 Descending Boston Center
11:01AM 42.6306 -73.7828 333° Northwest 151 174 1,900 -600 Descending Boston Center
11:02AM 42.6719 -73.8025 341° North 162 186 1,600 -540 Descending Boston Center
11:03AM 42.7103 -73.8039 358° North 138 159 900 -720 Descending Boston Center